createdAt,value
2023-03-01T00:03:17.748Z,9.85
2023-03-01T00:08:20.513Z,9.38
2023-03-01T00:13:23.178Z,12.02
2023-03-01T00:18:26.240Z,13.63
2023-03-01T00:23:32.583Z,11.13
2023-03-01T00:28:35.770Z,11.48
2023-03-01T00:33:38.696Z,11.27
2023-03-01T00:38:43.883Z,12.48
2023-03-01T00:43:49.321Z,12.18
2023-03-01T00:48:52.047Z,13.75
2023-03-01T00:53:56.300Z,10.82
2023-03-01T00:58:59.025Z,11.70
2023-03-01T01:04:06.491Z,12.20
2023-03-01T01:09:10.536Z,9.82
2023-03-01T01:14:14.297Z,11.63
2023-03-01T01:19:18.506Z,11.77
2023-03-01T01:24:21.222Z,11.25
2023-03-01T01:29:24.171Z,11.38
2023-03-01T01:34:26.908Z,11.75
2023-03-01T01:39:30.279Z,11.63
2023-03-01T01:44:35.408Z,11.88
2023-03-01T01:50:04.769Z,12.65
2023-03-01T01:55:13.476Z,11.32
2023-03-01T02:00:22.159Z,12.43
2023-03-01T02:05:53.301Z,11.45
2023-03-01T02:10:58.157Z,11.73
2023-03-01T02:16:01.815Z,10.88
2023-03-01T02:21:38.780Z,10.20
2023-03-01T02:26:50.475Z,12.10
2023-03-01T02:31:54.734Z,11.82
2023-03-01T02:37:06.961Z,11.13
2023-03-01T02:42:13.560Z,10.90
2023-03-01T02:47:16.249Z,12.40
2023-03-01T02:52:32.333Z,12.20
2023-03-01T02:57:37.250Z,11.15
2023-03-01T03:02:40.109Z,12.38
2023-03-01T03:07:51.815Z,12.00
2023-03-01T03:13:00.604Z,11.75
2023-03-01T03:18:06.619Z,10.60
2023-03-01T03:23:09.392Z,10.23
2023-03-01T03:28:12.092Z,10.40
2023-03-01T03:33:15.380Z,8.88
2023-03-01T03:38:21.040Z,7.75
2023-03-01T03:43:24.596Z,7.80
2023-03-01T03:48:28.238Z,7.50
2023-03-01T03:53:30.843Z,6.63
2023-03-01T03:58:33.579Z,5.82
2023-03-01T04:03:36.449Z,6.00
2023-03-01T04:08:39.448Z,6.63
2023-03-01T04:13:42.168Z,5.40
2023-03-01T04:18:48.276Z,5.28
2023-03-01T04:23:53.849Z,5.22
2023-03-01T04:28:56.737Z,6.05
2023-03-01T04:33:59.461Z,5.65
2023-03-01T04:39:13.614Z,6.60
2023-03-01T04:44:16.389Z,6.60
2023-03-01T04:49:19.078Z,6.75
2023-03-01T04:54:21.765Z,6.18
2023-03-01T04:59:24.733Z,6.13
2023-03-01T05:04:27.589Z,6.90
2023-03-01T05:09:34.817Z,6.88
2023-03-01T05:14:41.505Z,7.03
2023-03-01T05:19:44.209Z,5.57
2023-03-01T05:24:48.191Z,6.05
2023-03-01T05:29:51.019Z,6.63
2023-03-01T05:34:53.732Z,5.82
2023-03-01T05:39:56.425Z,6.70
2023-03-01T05:44:59.156Z,5.82
2023-03-01T05:50:01.873Z,5.75
2023-03-01T05:55:05.868Z,5.85
2023-03-01T06:00:10.203Z,5.63
2023-03-01T06:05:16.456Z,5.25
2023-03-01T06:10:21.279Z,5.00
2023-03-01T06:15:24.719Z,5.80
2023-03-01T06:20:29.667Z,5.90
2023-03-01T06:25:32.465Z,5.53
2023-03-01T06:30:35.321Z,6.03
2023-03-01T06:35:38.101Z,6.75
2023-03-01T06:40:40.844Z,6.25
2023-03-01T06:45:44.476Z,6.55
2023-03-01T06:50:47.418Z,6.45
2023-03-01T06:55:56.051Z,6.65
2023-03-01T07:00:58.664Z,6.55
2023-03-01T07:06:01.471Z,5.80
2023-03-01T07:11:05.216Z,7.00
2023-03-01T07:16:08.632Z,7.80
2023-03-01T07:21:14.711Z,7.47
2023-03-01T07:26:17.398Z,7.18
2023-03-01T07:31:20.151Z,7.65
2023-03-01T07:36:23.081Z,7.60
2023-03-01T07:41:26.260Z,7.95
2023-03-01T07:46:29.306Z,7.32
2023-03-01T07:51:32.393Z,6.50
2023-03-01T07:56:35.674Z,7.20
2023-03-01T08:01:38.499Z,6.60
2023-03-01T08:06:41.230Z,6.50
2023-03-01T08:11:44.180Z,6.28
2023-03-01T08:16:46.899Z,6.18
2023-03-01T08:21:49.609Z,6.40
2023-03-01T08:26:52.530Z,6.78
2023-03-01T08:31:55.408Z,6.78
2023-03-01T08:36:58.179Z,7.05
2023-03-01T08:42:00.912Z,6.03
2023-03-01T08:47:04.781Z,6.90
2023-03-01T08:52:07.561Z,6.55
2023-03-01T08:57:11.085Z,6.40
2023-03-01T09:02:16.101Z,6.97
2023-03-01T09:07:18.902Z,7.28
2023-03-01T09:12:21.777Z,7.35
2023-03-01T09:17:24.564Z,6.82
2023-03-01T09:22:27.603Z,6.20
2023-03-01T09:27:30.425Z,7.22
2023-03-01T09:32:33.307Z,6.95
2023-03-01T09:37:36.986Z,6.30
2023-03-01T09:42:50.240Z,7.25
2023-03-01T09:47:53.032Z,7.43
2023-03-01T09:53:15.914Z,6.47
2023-03-01T09:58:33.352Z,7.00
2023-03-01T10:04:11.372Z,6.75
2023-03-01T10:09:16.847Z,6.88
2023-03-01T10:14:38.751Z,7.28
2023-03-01T10:19:46.389Z,7.85
2023-03-01T10:24:50.160Z,7.18
2023-03-01T10:30:14.669Z,7.25
2023-03-01T10:35:31.497Z,8.05
2023-03-01T10:40:36.100Z,9.60
2023-03-01T10:45:40.778Z,9.27
2023-03-01T10:50:46.185Z,7.83
2023-03-01T10:55:49.138Z,8.30
2023-03-01T11:00:54.159Z,9.77
2023-03-01T11:11:07.370Z,10.03
2023-03-01T11:16:13.904Z,8.35
2023-03-01T11:21:19.792Z,10.88
2023-03-01T11:26:22.789Z,10.45
2023-03-01T11:31:26.174Z,10.63
2023-03-01T11:36:41.087Z,9.73
2023-03-01T11:47:12.746Z,11.82
2023-03-01T11:52:34.202Z,11.02
2023-03-01T11:57:52.207Z,12.60
2023-03-01T12:03:19.585Z,12.02
2023-03-01T12:08:34.059Z,11.05
2023-03-01T12:13:50.006Z,13.25
2023-03-01T12:19:07.837Z,12.32
2023-03-01T12:24:45.085Z,12.48
2023-03-01T12:30:11.582Z,11.98
2023-03-01T12:35:56.293Z,17.17
2023-03-01T12:41:14.980Z,13.80
2023-03-01T12:46:32.869Z,14.80
2023-03-01T12:51:37.261Z,14.07
2023-03-01T12:56:42.803Z,13.03
2023-03-01T13:01:58.914Z,14.85
2023-03-01T13:07:05.650Z,14.52
2023-03-01T13:12:50.712Z,13.85
2023-03-01T13:18:04.914Z,19.73
2023-03-01T13:23:15.604Z,15.50
2023-03-01T13:28:43.238Z,19.00
2023-03-01T13:33:48.397Z,21.33
2023-03-01T13:43:59.406Z,24.20
2023-03-01T13:49:02.283Z,24.25
2023-03-01T13:59:31.531Z,21.73
2023-03-01T14:04:37.270Z,24.23
2023-03-01T14:09:45.749Z,31.15
2023-03-01T14:15:00.927Z,28.42
2023-03-01T14:20:20.225Z,30.80
2023-03-01T14:25:31.579Z,30.70
2023-03-01T14:30:39.591Z,25.95
2023-03-01T14:35:43.129Z,27.40
2023-03-01T14:40:46.001Z,30.67
2023-03-01T14:45:50.404Z,30.13
2023-03-01T14:50:53.204Z,23.67
2023-03-01T14:55:58.733Z,24.30
2023-03-01T15:01:04.079Z,27.90
2023-03-01T15:06:08.185Z,25.92
2023-03-01T15:11:32.458Z,28.70
2023-03-01T15:21:52.915Z,24.35
2023-03-01T15:26:59.061Z,22.58
2023-03-01T15:32:23.941Z,23.20
2023-03-01T15:42:49.730Z,20.17
2023-03-01T15:47:55.412Z,22.07
2023-03-01T15:53:00.124Z,20.15
2023-03-01T15:58:20.509Z,20.85
2023-03-01T16:03:23.735Z,22.35
2023-03-01T16:08:26.450Z,19.52
2023-03-01T16:13:29.548Z,18.48
2023-03-01T16:18:32.320Z,19.45
2023-03-01T16:23:35.070Z,20.83
2023-03-01T16:28:37.959Z,19.88
2023-03-01T16:33:40.814Z,19.25
2023-03-01T16:38:43.576Z,15.23
2023-03-01T16:43:48.047Z,17.88
2023-03-01T16:48:51.508Z,16.38
2023-03-01T16:53:54.486Z,15.75
2023-03-01T16:58:57.340Z,19.33
2023-03-01T17:04:01.059Z,17.88
2023-03-01T17:09:03.983Z,15.63
2023-03-01T17:14:06.693Z,16.10
2023-03-01T17:19:09.484Z,16.73
2023-03-01T17:24:12.984Z,17.95
2023-03-01T17:29:18.723Z,15.80
2023-03-01T17:34:21.752Z,14.23
2023-03-01T17:39:32.277Z,13.65
2023-03-01T17:44:35.516Z,14.48
2023-03-01T17:49:38.409Z,13.73
2023-03-01T17:54:41.158Z,11.13
2023-03-01T17:59:44.047Z,14.82
2023-03-01T18:04:47.285Z,11.70
2023-03-01T18:09:49.933Z,10.82
2023-03-01T18:14:55.502Z,11.20
2023-03-01T18:19:59.280Z,9.75
2023-03-01T18:25:01.974Z,8.52
2023-03-01T18:30:07.298Z,9.48
2023-03-01T18:35:10.105Z,8.90
2023-03-01T18:40:14.328Z,8.82
2023-03-01T18:45:18.208Z,9.67
2023-03-01T18:50:21.247Z,7.80
2023-03-01T18:55:24.194Z,7.80
2023-03-01T19:00:27.168Z,6.03
2023-03-01T19:05:30.340Z,7.03
2023-03-01T19:10:33.246Z,7.00
2023-03-01T19:15:36.185Z,6.60
2023-03-01T19:20:39.618Z,6.68
2023-03-01T19:25:43.105Z,6.73
2023-03-01T19:30:45.903Z,6.13
2023-03-01T19:35:48.772Z,5.82
2023-03-01T19:40:52.067Z,6.30
2023-03-01T19:45:55.966Z,6.68
2023-03-01T19:50:58.937Z,7.47
2023-03-01T19:56:02.457Z,6.07
2023-03-01T20:01:05.315Z,5.20
2023-03-01T20:06:11.300Z,6.10
2023-03-01T20:11:16.191Z,6.20
2023-03-01T20:16:20.550Z,7.32
2023-03-01T20:21:24.825Z,6.00
2023-03-01T20:26:28.888Z,6.60
2023-03-01T20:31:31.661Z,6.47
2023-03-01T20:36:35.277Z,5.75
2023-03-01T20:41:39.268Z,6.90
2023-03-01T20:46:41.930Z,5.20
2023-03-01T20:51:45.138Z,5.32
2023-03-01T20:56:48.219Z,5.57
2023-03-01T21:01:51.441Z,4.70
2023-03-01T21:06:54.182Z,4.43
2023-03-01T21:11:56.818Z,5.03
2023-03-01T21:16:59.518Z,5.85
2023-03-01T21:22:02.304Z,5.40
2023-03-01T21:27:06.993Z,5.82
2023-03-01T21:32:11.009Z,4.97
2023-03-01T21:37:13.827Z,4.70
2023-03-01T21:42:16.637Z,5.30
2023-03-01T21:47:19.411Z,4.65
2023-03-01T21:52:22.202Z,5.70
2023-03-01T21:57:24.956Z,4.80
2023-03-01T22:02:27.728Z,4.60
2023-03-01T22:07:31.246Z,4.97
2023-03-01T22:12:34.478Z,4.95
2023-03-01T22:17:37.203Z,5.07
2023-03-01T22:22:39.898Z,5.65
2023-03-01T22:27:42.578Z,5.00
2023-03-01T22:32:46.184Z,5.30
2023-03-01T22:37:49.295Z,5.75
2023-03-01T22:42:52.129Z,4.50
2023-03-01T22:47:55.006Z,5.00
2023-03-01T22:52:57.806Z,5.05
2023-03-01T22:58:00.457Z,5.80
2023-03-01T23:03:03.376Z,5.07
2023-03-01T23:08:06.206Z,5.68
2023-03-01T23:13:09.001Z,5.18
2023-03-01T23:18:11.956Z,5.15
2023-03-01T23:23:14.902Z,5.55
2023-03-01T23:28:17.558Z,5.45
2023-03-01T23:33:20.322Z,5.70
2023-03-01T23:38:23.126Z,6.50
2023-03-01T23:43:25.896Z,5.85
2023-03-01T23:48:28.680Z,4.80
2023-03-01T23:53:31.416Z,4.95
2023-03-01T23:58:34.143Z,4.82
